Time;durP1;ratioP1;P1;durP2;ratioP2;P2;SDS_P1;SDS_P2;PMS_P1;PMS_P2;Temp;Humidity;BMP_temperature;BMP_pressure;BME280_temperature;BME280_humidity;BME280_pressure;Samples;Min_cycle;Max_cycle;Signal;HPM_P1;HPM_P2
2022/06/05 00:00:13;;;;;;;5.53;4.47;;;;;;;16.80;55.82;101608.28;5024851;28;20041;-71
2022/06/05 00:02:50;;;;;;;6.93;4.22;;;;;;;16.90;56.05;101614.66;5024741;28;20453;-71
2022/06/05 00:05:23;;;;;;;7.47;4.30;;;;;;;16.48;57.40;101617.38;5025160;28;20103;-72
2022/06/05 00:07:59;;;;;;;9.40;4.93;;;;;;;16.68;56.77;101622.28;5017606;28;20050;-71
2022/06/05 00:10:28;;;;;;;6.65;4.50;;;;;;;16.64;57.33;101614.63;5038784;28;20041;-71
2022/06/05 00:13:05;;;;;;;6.15;4.75;;;;;;;16.62;57.57;101627.97;5029783;28;20041;-71
2022/06/05 00:15:32;;;;;;;7.70;4.72;;;;;;;16.87;55.90;101633.41;5023763;28;20056;-71
2022/06/05 00:17:59;;;;;;;6.05;3.95;;;;;;;17.01;55.86;101640.47;5024543;28;20046;-72
2022/06/05 00:20:26;;;;;;;5.65;4.10;;;;;;;17.22;55.18;101641.72;5025487;28;20041;-69
2022/06/05 00:22:52;;;;;;;5.85;4.07;;;;;;;17.20;55.16;101633.03;5030299;28;20551;-72
2022/06/05 00:25:18;;;;;;;7.65;4.43;;;;;;;16.99;55.87;101624.69;5025545;28;20049;-72
2022/06/05 00:27:51;;;;;;;6.78;4.38;;;;;;;17.05;55.61;101634.03;5026589;28;20049;-72
2022/06/05 00:30:24;;;;;;;9.85;4.57;;;;;;;17.15;55.57;101635.13;5039459;28;20060;-72
2022/06/05 00:33:02;;;;;;;8.93;4.78;;;;;;;17.09;55.68;101632.88;5026910;28;20456;-72
2022/06/05 00:35:30;;;;;;;5.35;4.00;;;;;;;16.95;55.85;101633.78;5027316;28;20484;-73
2022/06/05 00:38:06;;;;;;;8.80;4.63;;;;;;;16.52;57.24;101630.28;5023157;28;20049;-73
2022/06/05 00:40:43;;;;;;;6.40;4.10;;;;;;;16.48;57.46;101636.72;5033649;28;20071;-72
2022/06/05 00:43:13;;;;;;;7.22;4.65;;;;;;;16.81;56.50;101636.47;5032175;28;20045;-71
2022/06/05 00:45:41;;;;;;;6.15;4.43;;;;;;;16.76;56.87;101642.97;5017905;28;20072;-71
2022/06/05 00:48:08;;;;;;;8.23;4.72;;;;;;;16.69;56.76;101637.22;5035524;28;20045;-71
2022/06/05 00:50:36;;;;;;;8.23;4.82;;;;;;;16.77;56.60;101644.69;5023075;28;20466;-71
2022/06/05 00:53:05;;;;;;;8.43;4.43;;;;;;;16.68;56.97;101630.22;5025247;28;20049;-72
2022/06/05 00:55:37;;;;;;;8.32;4.20;;;;;;;16.68;56.85;101632.88;5025062;28;20076;-72
2022/06/05 00:58:03;;;;;;;6.87;4.27;;;;;;;16.79;56.67;101630.41;5023246;28;20482;-72
2022/06/05 01:00:33;;;;;;;7.45;4.82;;;;;;;16.84;56.53;101630.09;5024532;28;20283;-71
2022/06/05 01:03:05;;;;;;;8.68;5.05;;;;;;;16.71;56.54;101631.81;5018564;28;20049;-71
2022/06/05 01:05:32;;;;;;;9.40;4.55;;;;;;;16.64;56.67;101627.84;5024369;28;20621;-70
2022/06/05 01:07:58;;;;;;;6.90;4.32;;;;;;;16.63;56.76;101624.34;5023384;28;20041;-72
2022/06/05 01:10:34;;;;;;;9.93;5.05;;;;;;;16.68;57.06;101624.94;5019590;28;20552;-71
2022/06/05 01:13:11;;;;;;;7.07;4.63;;;;;;;16.70;56.50;101619.53;5031922;28;20053;-71
2022/06/05 01:15:49;;;;;;;8.45;4.85;;;;;;;16.63;56.40;101605.81;5030104;28;20053;-72
2022/06/05 01:18:25;;;;;;;7.25;4.82;;;;;;;16.48;57.36;101604.94;5024960;28;20571;-71
2022/06/05 01:21:05;;;;;;;8.77;5.82;;;;;;;16.39;57.13;101602.91;5024615;28;20041;-71
2022/06/05 01:23:45;;;;;;;8.23;5.10;;;;;;;16.50;56.73;101595.13;5024919;28;20045;-72
2022/06/05 01:26:25;;;;;;;7.68;5.05;;;;;;;16.19;58.15;101599.75;5023483;28;20099;-72
2022/06/05 01:28:57;;;;;;;6.70;4.80;;;;;;;16.00;58.66;101605.34;5030822;28;20049;-73
2022/06/05 01:31:30;;;;;;;8.00;4.55;;;;;;;16.00;58.52;101602.72;5037856;28;20484;-74
2022/06/05 01:34:05;;;;;;;7.80;4.95;;;;;;;16.06;58.46;101597.88;5025287;28;20540;-74
2022/06/05 01:36:37;;;;;;;7.82;4.85;;;;;;;16.18;58.29;101598.09;5025973;28;20042;-74
2022/06/05 01:39:10;;;;;;;8.10;4.70;;;;;;;16.15;57.99;101604.38;5024520;28;20621;-74
2022/06/05 01:41:43;;;;;;;9.25;5.55;;;;;;;16.19;57.83;101590.03;5024895;28;20468;-74
2022/06/05 01:44:11;;;;;;;;;;;;;;;16.14;58.26;101589.47;5024433;28;20049;-75
2022/06/05 01:46:39;;;;;;;9.00;5.10;;;;;;;16.01;58.39;101592.00;5025218;28;19974;-72
2022/06/05 01:49:10;;;;;;;6.72;4.97;;;;;;;16.01;58.70;101581.44;5040595;28;20045;-73
2022/06/05 01:51:45;;;;;;;8.50;5.50;;;;;;;16.13;58.22;101584.28;5025420;28;20049;-73
2022/06/05 01:54:16;;;;;;;7.43;5.03;;;;;;;15.99;58.69;101587.78;5027648;28;20095;-72
2022/06/05 01:56:49;;;;;;;7.72;5.30;;;;;;;16.15;57.92;101591.16;5025981;28;20141;-72
2022/06/05 01:59:22;;;;;;;9.25;5.47;;;;;;;16.02;58.17;101587.56;5025795;28;20045;-72
2022/06/05 02:01:53;;;;;;;8.10;5.40;;;;;;;15.92;58.44;101583.78;5027549;28;20033;-73
2022/06/05 02:04:26;;;;;;;9.05;4.85;;;;;;;15.77;58.36;101588.22;5028043;28;20038;-72
2022/06/05 02:06:57;;;;;;;6.85;5.05;;;;;;;15.82;58.01;101585.28;5027452;28;20148;-72
2022/06/05 02:09:30;;;;;;;6.30;4.68;;;;;;;15.88;57.59;101595.50;5040801;28;20053;-72
2022/06/05 02:11:58;;;;;;;6.10;4.65;;;;;;;16.04;57.18;101583.88;5047039;28;20103;-72
2022/06/05 02:14:26;;;;;;;6.15;4.47;;;;;;;15.84;57.21;101584.25;5046897;28;20049;-72
2022/06/05 02:16:52;;;;;;;8.35;5.03;;;;;;;15.94;57.26;101572.16;5045308;28;20467;-73
2022/06/05 02:19:21;;;;;;;9.73;4.90;;;;;;;15.84;57.30;101578.13;5032140;28;20061;-72
2022/06/05 02:21:48;;;;;;;7.38;5.10;;;;;;;15.98;56.83;101575.47;5027348;28;20045;-73
2022/06/05 02:24:15;;;;;;;6.45;4.80;;;;;;;15.94;56.92;101569.53;5026655;28;20045;-72
2022/06/05 02:26:42;;;;;;;7.05;4.82;;;;;;;15.95;56.86;101565.09;5026655;28;20042;-73
2022/06/05 02:29:14;;;;;;;8.23;4.90;;;;;;;15.64;57.69;101565.22;5027061;28;20053;-73
2022/06/05 02:31:51;;;;;;;8.32;5.50;;;;;;;15.59;58.23;101558.41;5027311;28;20438;-72
2022/06/05 02:34:26;;;;;;;9.40;5.38;;;;;;;15.31;59.12;101558.31;5028133;28;20045;-72
2022/06/05 02:37:04;;;;;;;6.80;5.03;;;;;;;15.57;58.51;101560.31;5028187;28;20068;-73
2022/06/05 02:39:38;;;;;;;7.43;5.30;;;;;;;15.47;58.23;101561.78;5042306;28;20051;-72
2022/06/05 02:42:15;;;;;;;7.47;5.13;;;;;;;15.70;57.65;101559.59;5046659;28;20037;-73
2022/06/05 02:44:52;;;;;;;7.55;5.22;;;;;;;15.68;57.68;101559.66;5049303;28;20041;-72
2022/06/05 02:47:26;;;;;;;7.78;5.40;;;;;;;15.76;57.85;101564.50;5045365;28;20049;-72
2022/06/05 02:49:58;;;;;;;7.72;5.30;;;;;;;15.67;57.61;101562.41;5027202;28;20050;-72
2022/06/05 02:52:25;;;;;;;7.03;4.90;;;;;;;15.52;57.87;101562.38;5025606;28;20045;-72
2022/06/05 02:54:57;;;;;;;8.13;4.88;;;;;;;15.21;59.21;101572.16;5027238;28;20069;-72
2022/06/05 02:57:24;;;;;;;7.82;5.07;;;;;;;15.34;58.95;101573.13;5027438;28;20504;-72
2022/06/05 02:59:52;;;;;;;9.15;5.22;;;;;;;15.34;58.72;101575.78;5024412;28;20046;-72
2022/06/05 03:05:02;;;;;;;7.82;5.75;;;;;;;15.52;58.38;101570.28;5020609;28;20103;-72
2022/06/05 03:07:28;;;;;;;6.10;4.85;;;;;;;15.35;58.74;101580.97;5027784;28;20453;-72
2022/06/05 03:09:54;;;;;;;8.68;5.60;;;;;;;15.56;58.31;101574.47;5027152;28;20583;-71
2022/06/05 03:12:21;;;;;;;7.32;5.10;;;;;;;15.54;58.20;101572.84;5024917;28;20053;-73
2022/06/05 03:14:48;;;;;;;8.95;5.00;;;;;;;15.53;58.35;101585.22;5028133;28;20045;-71
2022/06/05 03:17:15;;;;;;;7.40;5.70;;;;;;;15.55;58.19;101577.22;5017667;28;20100;-71
2022/06/05 03:19:42;;;;;;;8.20;5.68;;;;;;;15.44;58.69;101580.47;5036344;28;20635;-71
2022/06/05 03:22:08;;;;;;;9.07;5.68;;;;;;;15.57;58.29;101570.88;5032565;28;20049;-71
2022/06/05 03:24:35;;;;;;;6.78;5.40;;;;;;;15.70;57.55;101570.16;5026552;28;20049;-71
2022/06/05 03:27:01;;;;;;;9.30;5.50;;;;;;;15.76;57.66;101573.28;5025367;28;20053;-71
2022/06/05 03:29:27;;;;;;;8.80;5.53;;;;;;;15.66;58.18;101568.66;5026383;28;20413;-71
2022/06/05 03:31:54;;;;;;;7.95;5.65;;;;;;;15.66;57.65;101560.72;5025950;28;20100;-71
2022/06/05 03:34:21;;;;;;;10.43;5.90;;;;;;;15.47;58.71;101563.56;5023920;28;20611;-71
2022/06/05 03:36:48;;;;;;;8.38;5.60;;;;;;;15.36;58.58;101576.56;5019063;28;20060;-71
2022/06/05 03:39:14;;;;;;;11.63;5.53;;;;;;;15.48;58.78;101581.13;5024218;28;20500;-73
2022/06/05 03:41:40;;;;;;;7.68;5.35;;;;;;;15.18;60.52;101578.47;5024952;28;20386;-73
2022/06/05 03:44:07;;;;;;;6.10;5.28;;;;;;;15.30;59.81;101577.75;5026202;28;20099;-73
2022/06/05 03:46:36;;;;;;;15.38;6.20;;;;;;;15.05;60.93;101575.66;5025410;28;20104;-73
2022/06/05 03:49:02;;;;;;;7.78;5.57;;;;;;;15.57;58.73;101581.47;5033952;28;20515;-73
2022/06/05 03:51:30;;;;;;;13.07;5.60;;;;;;;15.65;58.21;101577.50;5045625;28;20065;-73
2022/06/05 03:53:56;;;;;;;7.47;5.80;;;;;;;15.54;59.08;101586.94;5045620;28;20459;-73
2022/06/05 03:56:25;;;;;;;8.02;5.47;;;;;;;15.03;60.98;101592.56;5034795;28;20080;-73
2022/06/05 03:58:52;;;;;;;11.18;5.43;;;;;;;15.31;60.78;101594.44;5032541;28;20041;-73
2022/06/05 04:01:20;;;;;;;8.95;5.53;;;;;;;15.53;60.23;101593.16;5039648;28;20049;-73
2022/06/05 04:03:47;;;;;;;7.97;5.15;;;;;;;15.57;60.43;101581.47;5022833;28;20045;-73
2022/06/05 04:06:15;;;;;;;7.88;5.60;;;;;;;15.57;60.34;101570.88;5025393;28;20041;-73
2022/06/05 04:08:43;;;;;;;7.35;5.45;;;;;;;15.37;60.82;101587.00;5029854;28;20041;-73
2022/06/05 04:11:11;;;;;;;8.02;5.88;;;;;;;15.58;60.29;101582.31;5043021;28;20094;-73
2022/06/05 04:13:37;;;;;;;7.10;5.95;;;;;;;15.69;59.64;101571.09;5045946;28;20437;-73
2022/06/05 04:16:10;;;;;;;13.25;6.35;;;;;;;15.85;59.37;101569.25;5045352;28;20493;-73
2022/06/05 04:18:36;;;;;;;;;;;;;;;15.82;59.13;101569.41;5038190;28;20064;-73
2022/06/05 04:21:06;;;;;;;6.90;5.28;;;;;;;15.86;59.37;101569.13;5024477;28;19967;-73
2022/06/05 04:23:32;;;;;;;10.13;5.07;;;;;;;16.10;58.28;101569.44;5025774;28;20046;-72
2022/06/05 04:26:00;;;;;;;5.80;4.78;;;;;;;16.20;58.05;101556.50;5023825;28;20045;-72
2022/06/05 04:28:26;;;;;;;9.68;5.55;;;;;;;16.25;58.22;101552.63;5027746;28;20036;-72
2022/06/05 04:30:52;;;;;;;8.23;5.90;;;;;;;16.24;58.29;101548.28;5041609;28;20045;-73
2022/06/05 04:33:19;;;;;;;10.73;5.85;;;;;;;16.41;57.96;101552.50;5022815;28;20576;-73
2022/06/05 04:35:45;;;;;;;9.13;6.10;;;;;;;16.68;57.01;101555.22;5024850;28;20569;-71
2022/06/05 04:38:12;;;;;;;9.90;5.82;;;;;;;16.68;57.13;101552.56;5026755;28;20045;-72
2022/06/05 04:40:38;;;;;;;12.50;6.50;;;;;;;16.27;59.03;101548.06;5043989;28;20044;-72
2022/06/05 04:43:08;;;;;;;11.35;6.60;;;;;;;16.39;58.65;101544.66;5043594;28;20106;-71
2022/06/05 04:45:34;;;;;;;6.43;5.20;;;;;;;16.42;59.21;101547.09;5045463;28;20048;-71
2022/06/05 04:48:00;;;;;;;8.65;5.60;;;;;;;16.61;58.75;101546.81;5042166;28;20402;-71
2022/06/05 04:50:27;;;;;;;8.43;5.68;;;;;;;16.83;57.93;101538.34;5024891;28;20223;-71
2022/06/05 04:52:53;;;;;;;7.53;5.72;;;;;;;17.04;57.29;101534.28;5025127;28;20049;-71
2022/06/05 04:55:20;;;;;;;9.48;5.72;;;;;;;17.40;56.61;101523.91;5023309;28;20072;-71
2022/06/05 04:57:46;;;;;;;6.32;5.32;;;;;;;17.38;56.42;101519.63;5023631;28;20053;-71
2022/06/05 05:00:15;;;;;;;7.72;5.25;;;;;;;17.50;56.62;101524.97;5025195;28;20057;-71
2022/06/05 05:02:42;;;;;;;8.18;5.50;;;;;;;17.75;55.92;101518.84;5021831;28;20046;-71
2022/06/05 05:05:08;;;;;;;6.57;5.20;;;;;;;17.46;56.04;101517.31;5023784;28;20502;-71
2022/06/05 05:07:35;;;;;;;14.18;5.88;;;;;;;17.56;56.69;101518.38;5025378;28;20049;-71
2022/06/05 05:10:01;;;;;;;13.55;5.10;;;;;;;17.76;56.31;101515.25;5022783;28;20494;-71
2022/06/05 05:12:28;;;;;;;7.97;5.32;;;;;;;18.31;54.98;101520.16;5025034;28;20099;-71
2022/06/05 05:14:54;;;;;;;6.57;5.45;;;;;;;18.44;54.31;101512.16;5024624;28;20075;-72
2022/06/05 05:17:22;;;;;;;8.82;5.30;;;;;;;18.32;53.64;101513.06;5026770;28;20048;-72
2022/06/05 05:19:48;;;;;;;15.30;4.88;;;;;;;18.36;52.56;101510.06;5033279;28;20107;-73
2022/06/05 05:22:15;;;;;;;7.57;5.30;;;;;;;18.59;52.49;101504.94;5024204;28;20107;-72
2022/06/05 05:24:41;;;;;;;6.95;5.28;;;;;;;18.52;52.56;101508.97;5022176;28;20060;-72
2022/06/05 05:27:07;;;;;;;6.53;5.18;;;;;;;18.26;53.54;101509.00;5025006;28;20091;-72
2022/06/05 05:29:34;;;;;;;7.88;4.95;;;;;;;18.02;54.57;101507.25;5023590;28;20099;-73
2022/06/05 05:32:01;;;;;;;6.07;5.40;;;;;;;18.84;52.79;101504.81;5021904;28;20581;-73
2022/06/05 05:34:28;;;;;;;8.52;4.95;;;;;;;18.99;51.19;101508.16;5023923;28;20399;-73
2022/06/05 05:36:55;;;;;;;7.97;5.40;;;;;;;19.12;50.43;101501.78;5024299;28;20041;-72
2022/06/05 05:42:08;;;;;;;10.27;5.35;;;;;;;19.33;50.16;101501.97;5024014;28;20513;-73
2022/06/05 05:44:37;;;;;;;6.53;4.90;;;;;;;20.18;48.56;101498.81;5023299;28;20077;-73
2022/06/05 05:47:06;;;;;;;7.82;4.93;;;;;;;19.76;49.58;101499.56;5025636;28;20107;-72
2022/06/05 05:49:33;;;;;;;7.20;4.82;;;;;;;20.43;48.96;101504.88;5023496;28;20136;-73
2022/06/05 05:52:00;;;;;;;6.60;4.57;;;;;;;20.98;47.11;101507.38;5023499;28;20494;-72
2022/06/05 05:54:26;;;;;;;5.78;4.15;;;;;;;21.46;45.99;101496.25;5024317;28;20448;-73
2022/06/05 05:56:52;;;;;;;9.55;5.03;;;;;;;21.67;44.34;101494.41;5024022;28;20057;-74
2022/06/05 05:59:19;;;;;;;6.43;4.43;;;;;;;21.45;45.22;101494.56;5023778;28;20046;-72
2022/06/05 06:01:46;;;;;;;6.75;4.03;;;;;;;21.88;43.97;101500.56;5023943;28;20091;-72
2022/06/05 06:04:13;;;;;;;5.38;3.78;;;;;;;20.76;43.59;101508.31;5023816;28;20044;-73
2022/06/05 06:06:43;;;;;;;5.70;3.85;;;;;;;21.07;45.53;101505.75;5022959;28;20129;-71
2022/06/05 06:09:10;;;;;;;5.15;4.00;;;;;;;21.28;44.37;101498.69;5023959;28;20045;-73
2022/06/05 06:11:36;;;;;;;5.28;3.90;;;;;;;21.42;42.89;101505.50;5025184;28;20099;-73
2022/06/05 06:14:03;;;;;;;4.32;3.47;;;;;;;21.55;44.01;101498.97;5022875;28;20045;-72
2022/06/05 06:16:29;;;;;;;5.13;3.97;;;;;;;22.56;41.97;101498.97;5024000;28;20508;-73
2022/06/05 06:18:57;;;;;;;9.00;3.95;;;;;;;21.96;42.74;101495.44;5022875;28;20050;-73
2022/06/05 06:21:25;;;;;;;7.63;4.15;;;;;;;22.66;40.31;101495.34;5022119;28;20421;-73
2022/06/05 06:23:52;;;;;;;4.60;3.78;;;;;;;23.17;39.36;101489.75;5024911;28;20058;-72
2022/06/05 06:26:19;;;;;;;5.28;3.75;;;;;;;22.74;38.69;101502.69;5025717;28;20053;-72
2022/06/05 06:28:45;;;;;;;5.97;3.63;;;;;;;23.06;38.75;101503.28;5022754;28;20452;-72
2022/06/05 06:31:14;;;;;;;4.72;3.50;;;;;;;23.65;37.90;101499.56;5023005;28;20099;-70
2022/06/05 06:33:41;;;;;;;6.10;3.80;;;;;;;23.41;38.10;101501.84;5023914;28;20042;-69
2022/06/05 06:36:11;;;;;;;6.10;3.60;;;;;;;22.90;38.96;101486.09;5025185;28;20103;-69
2022/06/05 06:38:40;;;;;;;6.00;3.72;;;;;;;23.99;37.67;101495.34;5026479;28;20045;-67
2022/06/05 06:41:11;;;;;;;4.63;3.42;;;;;;;23.62;38.00;101483.78;5027329;28;20045;-67
2022/06/05 06:43:38;;;;;;;5.05;3.50;;;;;;;22.65;38.37;101487.47;5028352;28;20137;-67
2022/06/05 06:46:05;;;;;;;6.40;3.70;;;;;;;23.33;40.13;101478.47;5031065;28;20067;-67
2022/06/05 06:48:32;;;;;;;6.30;3.80;;;;;;;23.26;37.77;101474.69;5045626;28;20314;-67
2022/06/05 06:51:00;;;;;;;5.38;3.85;;;;;;;23.03;38.65;101468.78;5024394;28;20099;-67
2022/06/05 06:53:28;;;;;;;7.13;3.67;;;;;;;23.39;37.63;101471.72;5034910;28;20676;-67
2022/06/05 06:55:55;;;;;;;5.40;3.80;;;;;;;23.71;39.24;101458.81;5026784;28;20123;-67
2022/06/05 06:58:23;;;;;;;6.40;3.38;;;;;;;23.80;38.65;101457.91;5026704;28;20045;-67
2022/06/05 07:00:50;;;;;;;5.30;3.50;;;;;;;24.43;37.47;101461.56;5026111;28;20041;-67
2022/06/05 07:03:16;;;;;;;5.20;3.60;;;;;;;24.77;36.51;101455.53;5024756;28;20053;-67
2022/06/05 07:05:43;;;;;;;4.07;3.60;;;;;;;24.55;36.97;101452.31;5026503;28;20057;-67
2022/06/05 07:08:11;;;;;;;5.10;3.50;;;;;;;25.35;38.41;101448.66;5037313;28;20053;-67
2022/06/05 07:10:37;;;;;;;4.18;3.42;;;;;;;26.29;33.57;101445.97;5044380;28;20040;-67
2022/06/05 07:13:04;;;;;;;4.80;3.67;;;;;;;26.57;35.24;101445.53;5045033;28;20076;-67
2022/06/05 07:15:34;;;;;;;3.67;3.30;;;;;;;25.98;34.08;101442.97;5026382;28;20045;-67
2022/06/05 07:18:01;;;;;;;8.27;3.75;;;;;;;25.85;34.71;101439.91;5031784;28;20463;-67
2022/06/05 07:20:27;;;;;;;5.25;3.40;;;;;;;25.62;36.16;101434.25;5025601;28;20517;-67
2022/06/05 07:22:54;;;;;;;6.47;3.63;;;;;;;24.72;35.51;101426.50;5026610;28;20057;-67
2022/06/05 07:25:20;;;;;;;7.18;3.60;;;;;;;25.69;35.07;101419.19;5031905;28;20053;-67
2022/06/05 07:27:46;;;;;;;4.47;3.38;;;;;;;25.29;36.59;101425.13;5031361;28;20080;-67
2022/06/05 07:30:13;;;;;;;5.85;3.30;;;;;;;25.52;35.75;101428.16;5020125;28;20049;-67
2022/06/05 07:32:41;;;;;;;5.38;3.70;;;;;;;25.91;36.06;101423.97;5024481;28;20046;-68
2022/06/05 07:35:07;;;;;;;6.22;3.60;;;;;;;25.81;34.92;101417.06;5022616;28;20049;-67
2022/06/05 07:37:34;;;;;;;5.15;3.25;;;;;;;26.20;35.77;101422.78;5034404;28;20045;-68
2022/06/05 07:40:00;;;;;;;4.32;3.08;;;;;;;26.05;34.31;101412.59;5040844;28;20049;-67
2022/06/05 07:42:27;;;;;;;4.63;3.35;;;;;;;25.63;35.17;101418.00;5026932;28;20703;-68
2022/06/05 07:44:53;;;;;;;4.18;3.17;;;;;;;25.96;35.18;101412.75;5023376;28;20075;-68
2022/06/05 07:47:20;;;;;;;4.85;3.40;;;;;;;26.62;35.03;101400.16;5034991;28;20049;-68
2022/06/05 07:49:47;;;;;;;3.72;3.20;;;;;;;27.20;33.47;101401.81;5026373;28;20106;-68
2022/06/05 07:54:58;;;;;;;5.30;3.30;;;;;;;26.84;35.88;101389.75;5028577;28;20107;-67
2022/06/05 07:57:24;;;;;;;5.90;3.20;;;;;;;27.45;32.38;101397.25;5025613;28;20046;-67
2022/06/05 07:59:51;;;;;;;5.18;3.40;;;;;;;27.50;32.22;101390.34;5024866;28;20045;-67
2022/06/05 08:02:19;;;;;;;5.70;3.40;;;;;;;27.54;32.86;101377.38;5023615;28;20494;-67
2022/06/05 08:04:48;;;;;;;6.43;3.17;;;;;;;27.48;34.15;101380.75;5024956;28;20123;-67
2022/06/05 08:07:18;;;;;;;3.72;3.13;;;;;;;27.08;33.96;101381.69;5028853;28;20069;-68
2022/06/05 08:09:44;;;;;;;3.80;3.20;;;;;;;27.40;34.14;101376.22;5045248;28;20049;-68
2022/06/05 08:12:13;;;;;;;5.70;3.60;;;;;;;27.21;33.07;101378.44;5044082;28;20041;-68
2022/06/05 08:14:41;;;;;;;4.97;3.40;;;;;;;27.38;34.95;101375.53;5028230;28;20556;-68
2022/06/05 08:17:10;;;;;;;4.97;3.35;;;;;;;27.60;35.24;101365.06;5022573;28;20108;-68
2022/06/05 08:19:38;;;;;;;6.40;3.60;;;;;;;28.49;32.15;101363.53;5023610;28;20571;-68
2022/06/05 08:22:06;;;;;;;3.83;3.40;;;;;;;28.05;32.76;101363.31;5024486;28;20398;-68
2022/06/05 08:24:33;;;;;;;11.13;3.40;;;;;;;28.38;32.92;101363.94;5036133;28;20041;-67
2022/06/05 08:26:59;;;;;;;6.03;3.58;;;;;;;28.00;32.89;101360.31;5042930;28;20049;-67
2022/06/05 08:29:26;;;;;;;3.83;3.35;;;;;;;28.63;32.52;101356.53;5024538;28;20045;-67
2022/06/05 08:31:53;;;;;;;3.75;3.30;;;;;;;29.38;30.72;101345.69;5026467;28;20053;-67
2022/06/05 08:34:20;;;;;;;5.28;3.70;;;;;;;28.60;30.89;101343.41;5025499;28;20045;-67
2022/06/05 08:36:47;;;;;;;6.05;3.40;;;;;;;28.26;33.22;101343.00;5029723;28;20045;-68
2022/06/05 08:42:13;;;;;;;5.70;3.63;;;;;;;27.72;34.40;101340.25;5023272;28;20052;-68
2022/06/05 08:44:42;;;;;;;3.63;3.30;;;;;;;28.83;32.07;101338.81;5025985;28;20095;-68
2022/06/05 08:47:18;;;;;;;4.00;3.42;;;;;;;28.79;32.23;101331.25;5025988;28;20513;-68
2022/06/05 08:49:46;;;;;;;6.03;3.90;;;;;;;28.62;32.09;101325.16;5041496;28;20049;-68
2022/06/05 08:52:37;;;;;;;8.80;3.95;;;;;;;28.76;33.44;101327.06;5023748;28;20053;-68
2022/06/05 08:55:10;;;;;;;5.78;3.90;;;;;;;28.37;31.98;101324.53;5028974;28;20053;-68
2022/06/05 08:57:40;;;;;;;4.95;3.42;;;;;;;29.38;34.41;101327.59;5023679;28;20045;-68
2022/06/05 09:00:13;;;;;;;4.35;3.72;;;;;;;29.28;31.08;101318.13;5030476;28;20049;-68
2022/06/05 09:02:46;;;;;;;3.88;3.38;;;;;;;29.28;32.57;101312.72;5025436;28;20064;-67
2022/06/05 09:05:19;;;;;;;4.05;3.45;;;;;;;29.71;30.39;101314.50;5024612;28;20049;-67
2022/06/05 09:07:50;;;;;;;3.92;3.35;;;;;;;30.20;30.19;101300.31;5028446;28;20100;-67
2022/06/05 09:10:23;;;;;;;4.68;3.47;;;;;;;29.64;29.08;101308.19;5025139;28;20123;-69
2022/06/05 09:12:55;;;;;;;3.60;3.10;;;;;;;29.34;31.81;101302.00;5040726;28;20048;-66
2022/06/05 09:15:27;;;;;;;4.00;3.20;;;;;;;29.33;30.80;101300.34;5022061;28;20083;-66
2022/06/05 09:17:56;;;;;;;4.03;3.60;;;;;;;29.54;31.93;101302.25;5039558;28;20045;-66
2022/06/05 09:20:31;;;;;;;8.27;3.40;;;;;;;29.43;30.97;101303.56;5042013;28;20631;-66
2022/06/05 09:23:02;;;;;;;7.88;3.60;;;;;;;29.35;30.27;101298.28;5022295;28;20045;-66
2022/06/05 09:25:44;;;;;;;4.97;3.50;;;;;;;30.01;30.04;101300.97;5037199;28;20071;-66
2022/06/05 09:28:33;;;;;;;4.88;3.60;;;;;;;30.21;32.14;101296.56;5045192;28;20386;-66
2022/06/05 09:31:14;;;;;;;5.57;3.70;;;;;;;30.18;29.05;101291.56;5038671;28;20136;-65
2022/06/05 09:33:42;;;;;;;5.83;3.83;;;;;;;29.53;31.02;101305.97;5021978;28;20721;-66
2022/06/05 09:36:12;;;;;;;7.50;3.80;;;;;;;29.72;31.03;101297.28;5027597;28;20046;-66
2022/06/05 09:38:42;;;;;;;5.18;4.20;;;;;;;28.74;33.29;101294.06;5024811;28;20064;-66
2022/06/05 09:41:37;;;;;;;4.25;3.85;;;;;;;28.79;32.53;101301.56;5024417;28;20478;-66
2022/06/05 09:44:20;;;;;;;6.75;3.95;;;;;;;28.68;32.21;101294.75;5020995;28;20107;-66
2022/06/05 09:46:58;;;;;;;4.68;4.20;;;;;;;28.86;33.54;101278.25;5043354;28;20467;-66
2022/06/05 09:49:31;;;;;;;5.38;4.38;;;;;;;28.46;33.35;101277.56;5043547;28;20045;-66
2022/06/05 09:52:00;;;;;;;6.63;4.57;;;;;;;28.48;35.42;101272.00;5043024;28;20041;-66
2022/06/05 09:54:30;;;;;;;5.03;4.43;;;;;;;28.97;34.04;101267.81;5040515;28;20041;-66
2022/06/05 10:00:01;;;;;;;4.95;4.45;;;;;;;28.61;33.33;101260.56;5023318;28;20079;-66
2022/06/05 10:02:29;;;;;;;4.50;4.10;;;;;;;29.59;31.96;101253.91;5023664;28;20533;-66
2022/06/05 10:04:56;;;;;;;5.35;4.30;;;;;;;29.73;31.56;101285.44;5024877;28;20183;-66
2022/06/05 10:07:28;;;;;;;6.00;4.63;;;;;;;29.16;31.63;101281.75;5025399;28;20103;-66
2022/06/05 10:09:54;;;;;;;;;;;;;;;28.80;33.66;101260.91;5027064;28;20095;-66
2022/06/05 10:12:27;;;;;;;4.90;4.35;;;;;;;28.37;33.28;101258.97;5026646;28;19967;-66
2022/06/05 10:14:59;;;;;;;5.20;4.70;;;;;;;28.95;35.23;101263.63;5027530;28;20084;-66
2022/06/05 10:17:42;;;;;;;9.38;4.80;;;;;;;29.81;33.71;101261.00;5027412;28;20046;-66
2022/06/05 10:20:29;;;;;;;8.23;4.60;;;;;;;29.61;31.49;101254.53;5040717;28;20550;-66
2022/06/05 10:23:10;;;;;;;7.75;4.90;;;;;;;29.52;32.96;101247.56;5044946;28;20045;-66
2022/06/05 10:25:41;;;;;;;8.38;4.35;;;;;;;28.59;33.08;101241.88;5034744;28;20111;-66
2022/06/05 10:28:15;;;;;;;5.50;4.37;;;;;;;29.14;33.47;101254.13;5026854;28;20045;-66
2022/06/05 10:30:52;;;;;;;5.97;4.60;;;;;;;29.74;32.35;101254.69;5032167;28;20893;-66
2022/06/05 10:33:27;;;;;;;5.82;4.20;;;;;;;29.16;32.41;101243.94;5021181;28;20080;-66
2022/06/05 10:36:00;;;;;;;6.55;4.70;;;;;;;29.54;31.93;101234.69;5025294;28;20179;-66
2022/06/05 10:38:36;;;;;;;6.05;4.95;;;;;;;28.36;33.81;101225.75;5029015;28;20499;-66
2022/06/05 10:41:15;;;;;;;7.15;4.57;;;;;;;29.13;33.97;101207.38;5026257;28;20042;-66
2022/06/05 10:43:44;;;;;;;6.03;4.53;;;;;;;29.78;32.20;101201.91;5027172;28;20132;-66
2022/06/05 10:46:20;;;;;;;6.18;4.68;;;;;;;30.25;32.46;101197.78;5025897;28;20053;-66
2022/06/05 10:48:53;;;;;;;7.25;4.50;;;;;;;30.58;31.20;101190.75;5022039;28;20413;-66
2022/06/05 10:51:33;;;;;;;7.20;4.35;;;;;;;29.75;32.36;101180.66;5024528;28;20045;-66
2022/06/05 10:54:07;;;;;;;5.10;4.53;;;;;;;30.33;33.94;101168.72;5027818;28;20055;-66
2022/06/05 10:56:42;;;;;;;6.85;4.25;;;;;;;30.09;32.85;101174.53;5024970;28;20045;-66
2022/06/05 10:59:17;;;;;;;5.82;4.45;;;;;;;30.91;32.06;101151.16;5025791;28;20119;-66
2022/06/05 11:02:01;;;;;;;5.00;4.45;;;;;;;30.52;29.50;101156.38;5025705;28;20052;-66
2022/06/05 11:04:41;;;;;;;4.40;4.00;;;;;;;30.32;29.58;101158.06;5026163;28;20045;-66
2022/06/05 11:07:23;;;;;;;4.60;4.10;;;;;;;30.37;30.88;101150.22;5024632;28;20095;-66
2022/06/05 11:09:52;;;;;;;;;;;;;;;30.66;30.82;101141.88;5022515;28;20069;-67
2022/06/05 11:15:16;;;;;;;5.55;4.45;;;;;;;30.39;29.32;101126.47;5031273;28;20052;-66
2022/06/05 11:17:52;;;;;;;4.45;4.05;;;;;;;30.52;30.63;101132.03;5045395;28;20044;-66
2022/06/05 11:20:21;;;;;;;6.32;4.68;;;;;;;29.69;31.26;101127.38;5043589;28;20061;-66
2022/06/05 11:22:55;;;;;;;5.53;4.45;;;;;;;28.98;31.66;101133.66;5027034;28;20052;-66
2022/06/05 11:25:25;;;;;;;8.77;4.53;;;;;;;29.55;32.64;101131.00;5025545;28;20045;-66
2022/06/05 11:27:59;;;;;;;6.85;4.40;;;;;;;29.70;31.06;101139.88;5039010;28;20072;-66
2022/06/05 11:30:39;;;;;;;5.43;4.60;;;;;;;29.53;31.94;101140.34;5037100;28;20929;-66
2022/06/05 11:33:13;;;;;;;6.50;4.43;;;;;;;29.71;32.26;101136.13;5020010;28;20151;-66
2022/06/05 11:35:56;;;;;;;7.18;4.30;;;;;;;29.74;31.48;101124.09;5024158;28;20042;-66
2022/06/05 11:38:30;;;;;;;5.13;4.60;;;;;;;29.73;30.18;101122.41;5027190;28;20049;-66
2022/06/05 11:41:02;;;;;;;5.05;4.32;;;;;;;29.79;30.83;101111.66;5037173;28;20037;-66
2022/06/05 11:43:33;;;;;;;;;;;;;;;29.67;30.80;101099.72;5046063;28;20467;-67
2022/06/05 11:46:10;;;;;;;4.70;4.20;;;;;;;29.19;31.74;101090.50;5043475;28;20008;-66
2022/06/05 11:48:40;;;;;;;5.90;4.40;;;;;;;29.97;31.88;101096.88;5028653;28;20049;-66
2022/06/05 11:51:19;;;;;;;8.98;4.50;;;;;;;29.77;30.65;101099.38;5023450;28;20049;-66
2022/06/05 11:53:54;;;;;;;6.95;4.28;;;;;;;30.13;31.41;101091.16;5024467;28;20099;-66
2022/06/05 11:56:31;;;;;;;9.00;4.07;;;;;;;30.44;32.23;101078.06;5023762;28;20076;-67